sensor_id;sensor_type;location;lat;lon;timestamp;P1;durP1;ratioP1;P2;durP2;ratioP2
18102;SDS011;9178;51.120;6.192;2023-04-25T00:00:04;13.90;;;3.73;;
18102;SDS011;9178;51.120;6.192;2023-04-25T00:02:32;11.87;;;4.60;;
18102;SDS011;9178;51.120;6.192;2023-04-25T00:04:59;18.87;;;3.90;;
18102;SDS011;9178;51.120;6.192;2023-04-25T00:07:26;11.37;;;3.73;;
18102;SDS011;9178;51.120;6.192;2023-04-25T00:09:53;13.70;;;4.20;;
18102;SDS011;9178;51.120;6.192;2023-04-25T00:12:22;9.43;;;4.63;;
18102;SDS011;9178;51.120;6.192;2023-04-25T00:14:49;10.90;;;4.00;;
18102;SDS011;9178;51.120;6.192;2023-04-25T00:17:16;12.43;;;4.50;;
18102;SDS011;9178;51.120;6.192;2023-04-25T00:19:44;9.43;;;3.77;;
18102;SDS011;9178;51.120;6.192;2023-04-25T00:22:11;10.27;;;4.40;;
18102;SDS011;9178;51.120;6.192;2023-04-25T00:24:38;12.07;;;4.00;;
18102;SDS011;9178;51.120;6.192;2023-04-25T00:27:05;9.50;;;4.07;;
18102;SDS011;9178;51.120;6.192;2023-04-25T00:29:33;10.33;;;3.90;;
18102;SDS011;9178;51.120;6.192;2023-04-25T00:32:00;11.53;;;4.27;;
18102;SDS011;9178;51.120;6.192;2023-04-25T00:34:27;17.90;;;4.83;;
18102;SDS011;9178;51.120;6.192;2023-04-25T00:36:54;12.33;;;4.37;;
18102;SDS011;9178;51.120;6.192;2023-04-25T00:39:22;15.70;;;5.53;;
18102;SDS011;9178;51.120;6.192;2023-04-25T00:41:52;13.63;;;5.00;;
18102;SDS011;9178;51.120;6.192;2023-04-25T00:44:20;18.40;;;4.87;;
18102;SDS011;9178;51.120;6.192;2023-04-25T00:46:51;11.50;;;4.27;;
18102;SDS011;9178;51.120;6.192;2023-04-25T00:49:20;9.93;;;4.20;;
18102;SDS011;9178;51.120;6.192;2023-04-25T00:51:46;10.07;;;4.33;;
18102;SDS011;9178;51.120;6.192;2023-04-25T00:54:14;9.23;;;3.97;;
18102;SDS011;9178;51.120;6.192;2023-04-25T00:56:42;14.80;;;4.70;;
18102;SDS011;9178;51.120;6.192;2023-04-25T00:59:10;13.60;;;4.97;;
18102;SDS011;9178;51.120;6.192;2023-04-25T01:01:38;10.40;;;4.67;;
18102;SDS011;9178;51.120;6.192;2023-04-25T01:04:07;14.53;;;5.07;;
18102;SDS011;9178;51.120;6.192;2023-04-25T01:06:34;9.63;;;4.00;;
18102;SDS011;9178;51.120;6.192;2023-04-25T01:09:02;9.43;;;4.17;;
18102;SDS011;9178;51.120;6.192;2023-04-25T01:11:30;12.60;;;4.20;;
18102;SDS011;9178;51.120;6.192;2023-04-25T01:13:57;8.70;;;3.87;;
18102;SDS011;9178;51.120;6.192;2023-04-25T01:16:24;14.97;;;4.43;;
18102;SDS011;9178;51.120;6.192;2023-04-25T01:18:53;8.90;;;3.80;;
18102;SDS011;9178;51.120;6.192;2023-04-25T01:21:22;12.53;;;4.27;;
18102;SDS011;9178;51.120;6.192;2023-04-25T01:23:55;10.73;;;4.13;;
18102;SDS011;9178;51.120;6.192;2023-04-25T01:26:22;8.43;;;3.80;;
18102;SDS011;9178;51.120;6.192;2023-04-25T01:28:50;10.70;;;4.33;;
18102;SDS011;9178;51.120;6.192;2023-04-25T01:31:18;11.50;;;3.87;;
18102;SDS011;9178;51.120;6.192;2023-04-25T01:33:45;9.10;;;4.13;;
18102;SDS011;9178;51.120;6.192;2023-04-25T01:36:13;11.30;;;4.10;;
18102;SDS011;9178;51.120;6.192;2023-04-25T01:38:42;12.20;;;4.20;;
18102;SDS011;9178;51.120;6.192;2023-04-25T01:41:11;9.53;;;4.50;;
18102;SDS011;9178;51.120;6.192;2023-04-25T01:43:40;12.23;;;4.17;;
18102;SDS011;9178;51.120;6.192;2023-04-25T01:46:07;9.53;;;4.70;;
18102;SDS011;9178;51.120;6.192;2023-04-25T01:48:34;11.53;;;4.30;;
18102;SDS011;9178;51.120;6.192;2023-04-25T01:51:01;10.63;;;4.07;;
18102;SDS011;9178;51.120;6.192;2023-04-25T01:53:28;10.40;;;4.00;;
18102;SDS011;9178;51.120;6.192;2023-04-25T01:55:57;12.07;;;3.83;;
18102;SDS011;9178;51.120;6.192;2023-04-25T01:58:24;9.87;;;5.13;;
18102;SDS011;9178;51.120;6.192;2023-04-25T02:00:51;15.73;;;5.10;;
18102;SDS011;9178;51.120;6.192;2023-04-25T02:03:18;12.07;;;4.20;;
18102;SDS011;9178;51.120;6.192;2023-04-25T02:05:45;11.87;;;5.13;;
18102;SDS011;9178;51.120;6.192;2023-04-25T02:08:12;14.63;;;4.67;;
18102;SDS011;9178;51.120;6.192;2023-04-25T02:10:39;11.53;;;4.67;;
18102;SDS011;9178;51.120;6.192;2023-04-25T02:13:07;14.77;;;5.13;;
18102;SDS011;9178;51.120;6.192;2023-04-25T02:15:34;9.80;;;5.57;;
18102;SDS011;9178;51.120;6.192;2023-04-25T02:18:01;11.07;;;4.70;;
18102;SDS011;9178;51.120;6.192;2023-04-25T02:20:29;11.57;;;5.00;;
18102;SDS011;9178;51.120;6.192;2023-04-25T02:22:56;17.10;;;5.13;;
18102;SDS011;9178;51.120;6.192;2023-04-25T02:25:23;17.90;;;5.23;;
18102;SDS011;9178;51.120;6.192;2023-04-25T02:27:50;10.87;;;4.73;;
18102;SDS011;9178;51.120;6.192;2023-04-25T02:30:19;14.23;;;4.97;;
18102;SDS011;9178;51.120;6.192;2023-04-25T02:32:46;9.60;;;4.40;;
18102;SDS011;9178;51.120;6.192;2023-04-25T02:35:13;18.33;;;5.47;;
18102;SDS011;9178;51.120;6.192;2023-04-25T02:37:40;15.50;;;4.57;;
18102;SDS011;9178;51.120;6.192;2023-04-25T02:40:10;9.40;;;4.63;;
18102;SDS011;9178;51.120;6.192;2023-04-25T02:42:37;15.97;;;5.00;;
18102;SDS011;9178;51.120;6.192;2023-04-25T02:45:04;14.00;;;5.03;;
18102;SDS011;9178;51.120;6.192;2023-04-25T02:47:33;10.90;;;4.73;;
18102;SDS011;9178;51.120;6.192;2023-04-25T02:50:00;10.80;;;4.90;;
18102;SDS011;9178;51.120;6.192;2023-04-25T02:52:27;11.97;;;4.83;;
18102;SDS011;9178;51.120;6.192;2023-04-25T02:54:54;11.27;;;5.10;;
18102;SDS011;9178;51.120;6.192;2023-04-25T02:57:21;19.30;;;5.27;;
18102;SDS011;9178;51.120;6.192;2023-04-25T02:59:48;14.17;;;5.20;;
18102;SDS011;9178;51.120;6.192;2023-04-25T03:02:15;12.53;;;5.13;;
18102;SDS011;9178;51.120;6.192;2023-04-25T03:04:43;17.97;;;5.73;;
18102;SDS011;9178;51.120;6.192;2023-04-25T03:07:13;11.33;;;5.43;;
18102;SDS011;9178;51.120;6.192;2023-04-25T03:09:40;17.50;;;5.50;;
18102;SDS011;9178;51.120;6.192;2023-04-25T03:12:06;15.60;;;5.77;;
18102;SDS011;9178;51.120;6.192;2023-04-25T03:14:33;10.40;;;5.07;;
18102;SDS011;9178;51.120;6.192;2023-04-25T03:17:03;15.40;;;5.20;;
18102;SDS011;9178;51.120;6.192;2023-04-25T03:19:30;13.80;;;5.33;;
18102;SDS011;9178;51.120;6.192;2023-04-25T03:21:58;12.37;;;5.77;;
18102;SDS011;9178;51.120;6.192;2023-04-25T03:24:27;19.97;;;5.33;;
18102;SDS011;9178;51.120;6.192;2023-04-25T03:26:54;11.00;;;5.43;;
18102;SDS011;9178;51.120;6.192;2023-04-25T03:29:23;15.83;;;5.20;;
18102;SDS011;9178;51.120;6.192;2023-04-25T03:31:51;14.27;;;5.27;;
18102;SDS011;9178;51.120;6.192;2023-04-25T03:34:18;11.33;;;6.03;;
18102;SDS011;9178;51.120;6.192;2023-04-25T03:36:46;14.00;;;5.27;;
18102;SDS011;9178;51.120;6.192;2023-04-25T03:39:15;18.43;;;5.97;;
18102;SDS011;9178;51.120;6.192;2023-04-25T03:41:42;14.70;;;5.83;;
18102;SDS011;9178;51.120;6.192;2023-04-25T03:44:09;12.73;;;5.77;;
18102;SDS011;9178;51.120;6.192;2023-04-25T03:46:36;14.77;;;5.13;;
18102;SDS011;9178;51.120;6.192;2023-04-25T03:49:03;12.73;;;4.87;;
18102;SDS011;9178;51.120;6.192;2023-04-25T03:51:29;12.63;;;5.30;;
18102;SDS011;9178;51.120;6.192;2023-04-25T03:53:56;14.03;;;5.33;;
18102;SDS011;9178;51.120;6.192;2023-04-25T03:56:25;15.17;;;5.00;;
18102;SDS011;9178;51.120;6.192;2023-04-25T03:58:52;11.60;;;5.07;;
18102;SDS011;9178;51.120;6.192;2023-04-25T04:01:19;14.80;;;5.10;;
18102;SDS011;9178;51.120;6.192;2023-04-25T04:03:48;10.23;;;4.50;;
18102;SDS011;9178;51.120;6.192;2023-04-25T04:06:16;12.50;;;4.53;;
18102;SDS011;9178;51.120;6.192;2023-04-25T04:08:43;12.03;;;5.00;;
18102;SDS011;9178;51.120;6.192;2023-04-25T04:11:13;16.33;;;5.27;;
18102;SDS011;9178;51.120;6.192;2023-04-25T04:13:41;17.53;;;4.77;;
18102;SDS011;9178;51.120;6.192;2023-04-25T04:16:11;13.87;;;5.00;;
18102;SDS011;9178;51.120;6.192;2023-04-25T04:18:41;10.63;;;5.00;;
18102;SDS011;9178;51.120;6.192;2023-04-25T04:21:07;11.87;;;5.10;;
18102;SDS011;9178;51.120;6.192;2023-04-25T04:23:35;14.23;;;4.93;;
18102;SDS011;9178;51.120;6.192;2023-04-25T04:26:02;12.43;;;5.20;;
18102;SDS011;9178;51.120;6.192;2023-04-25T04:28:30;16.80;;;4.80;;
18102;SDS011;9178;51.120;6.192;2023-04-25T04:30:59;16.87;;;5.53;;
18102;SDS011;9178;51.120;6.192;2023-04-25T04:33:29;16.40;;;5.43;;
18102;SDS011;9178;51.120;6.192;2023-04-25T04:36:00;20.50;;;5.27;;
18102;SDS011;9178;51.120;6.192;2023-04-25T04:38:27;15.47;;;5.37;;
18102;SDS011;9178;51.120;6.192;2023-04-25T04:40:58;11.63;;;5.10;;
18102;SDS011;9178;51.120;6.192;2023-04-25T04:43:25;14.47;;;4.50;;
18102;SDS011;9178;51.120;6.192;2023-04-25T04:45:55;13.57;;;5.40;;
18102;SDS011;9178;51.120;6.192;2023-04-25T04:48:24;15.33;;;5.70;;
18102;SDS011;9178;51.120;6.192;2023-04-25T04:50:51;17.90;;;5.33;;
18102;SDS011;9178;51.120;6.192;2023-04-25T04:53:18;16.83;;;4.87;;
18102;SDS011;9178;51.120;6.192;2023-04-25T04:55:52;12.73;;;4.87;;
18102;SDS011;9178;51.120;6.192;2023-04-25T04:58:19;10.10;;;4.20;;
18102;SDS011;9178;51.120;6.192;2023-04-25T05:00:46;11.57;;;4.30;;
18102;SDS011;9178;51.120;6.192;2023-04-25T05:03:13;16.40;;;5.40;;
18102;SDS011;9178;51.120;6.192;2023-04-25T05:05:42;16.73;;;5.37;;
18102;SDS011;9178;51.120;6.192;2023-04-25T05:08:09;15.10;;;5.20;;
18102;SDS011;9178;51.120;6.192;2023-04-25T05:10:36;16.20;;;4.90;;
18102;SDS011;9178;51.120;6.192;2023-04-25T05:13:05;12.67;;;5.23;;
18102;SDS011;9178;51.120;6.192;2023-04-25T05:15:32;14.13;;;4.60;;
18102;SDS011;9178;51.120;6.192;2023-04-25T05:17:59;15.20;;;4.90;;
18102;SDS011;9178;51.120;6.192;2023-04-25T05:20:27;15.70;;;5.53;;
18102;SDS011;9178;51.120;6.192;2023-04-25T05:23:05;14.83;;;4.43;;
18102;SDS011;9178;51.120;6.192;2023-04-25T05:25:32;15.13;;;4.83;;
18102;SDS011;9178;51.120;6.192;2023-04-25T05:28:00;18.70;;;4.83;;
18102;SDS011;9178;51.120;6.192;2023-04-25T05:30:27;10.23;;;5.03;;
18102;SDS011;9178;51.120;6.192;2023-04-25T05:32:55;14.33;;;5.40;;
18102;SDS011;9178;51.120;6.192;2023-04-25T05:35:22;16.87;;;5.10;;
18102;SDS011;9178;51.120;6.192;2023-04-25T05:37:50;13.27;;;4.60;;
18102;SDS011;9178;51.120;6.192;2023-04-25T05:40:27;13.30;;;4.57;;
18102;SDS011;9178;51.120;6.192;2023-04-25T05:42:54;13.77;;;4.90;;
18102;SDS011;9178;51.120;6.192;2023-04-25T05:45:21;15.50;;;4.90;;
18102;SDS011;9178;51.120;6.192;2023-04-25T05:47:48;10.87;;;4.80;;
18102;SDS011;9178;51.120;6.192;2023-04-25T05:50:15;14.07;;;5.07;;
18102;SDS011;9178;51.120;6.192;2023-04-25T05:52:42;17.20;;;4.40;;
18102;SDS011;9178;51.120;6.192;2023-04-25T05:55:09;15.27;;;4.23;;
18102;SDS011;9178;51.120;6.192;2023-04-25T05:57:38;11.80;;;4.27;;
18102;SDS011;9178;51.120;6.192;2023-04-25T06:00:14;14.67;;;4.43;;
18102;SDS011;9178;51.120;6.192;2023-04-25T06:02:42;12.80;;;4.53;;
18102;SDS011;9178;51.120;6.192;2023-04-25T06:05:09;14.57;;;4.70;;
18102;SDS011;9178;51.120;6.192;2023-04-25T06:07:36;14.10;;;4.07;;
18102;SDS011;9178;51.120;6.192;2023-04-25T06:10:03;15.07;;;4.57;;
18102;SDS011;9178;51.120;6.192;2023-04-25T06:12:32;17.27;;;4.43;;
18102;SDS011;9178;51.120;6.192;2023-04-25T06:15:00;14.40;;;4.63;;
18102;SDS011;9178;51.120;6.192;2023-04-25T06:17:27;10.03;;;4.60;;
18102;SDS011;9178;51.120;6.192;2023-04-25T06:19:54;13.43;;;5.20;;
18102;SDS011;9178;51.120;6.192;2023-04-25T06:22:28;13.63;;;3.97;;
18102;SDS011;9178;51.120;6.192;2023-04-25T06:24:56;11.80;;;4.17;;
18102;SDS011;9178;51.120;6.192;2023-04-25T06:27:25;12.47;;;4.77;;
18102;SDS011;9178;51.120;6.192;2023-04-25T06:29:56;13.77;;;4.33;;
18102;SDS011;9178;51.120;6.192;2023-04-25T06:32:24;13.33;;;4.10;;
18102;SDS011;9178;51.120;6.192;2023-04-25T06:34:52;16.97;;;4.03;;
18102;SDS011;9178;51.120;6.192;2023-04-25T06:37:19;12.37;;;3.73;;
18102;SDS011;9178;51.120;6.192;2023-04-25T06:39:46;10.77;;;3.53;;
18102;SDS011;9178;51.120;6.192;2023-04-25T06:42:13;9.23;;;3.57;;
18102;SDS011;9178;51.120;6.192;2023-04-25T06:44:40;7.97;;;3.10;;
18102;SDS011;9178;51.120;6.192;2023-04-25T06:47:07;8.40;;;2.90;;
18102;SDS011;9178;51.120;6.192;2023-04-25T06:49:35;12.27;;;3.70;;
18102;SDS011;9178;51.120;6.192;2023-04-25T06:52:02;15.17;;;3.20;;
18102;SDS011;9178;51.120;6.192;2023-04-25T06:54:31;10.83;;;3.50;;
18102;SDS011;9178;51.120;6.192;2023-04-25T06:56:58;15.93;;;3.70;;
18102;SDS011;9178;51.120;6.192;2023-04-25T06:59:26;10.40;;;3.60;;
18102;SDS011;9178;51.120;6.192;2023-04-25T07:01:53;9.93;;;3.07;;
18102;SDS011;9178;51.120;6.192;2023-04-25T07:04:20;9.80;;;3.37;;
18102;SDS011;9178;51.120;6.192;2023-04-25T07:06:52;9.70;;;2.83;;
18102;SDS011;9178;51.120;6.192;2023-04-25T07:09:19;13.07;;;2.77;;
18102;SDS011;9178;51.120;6.192;2023-04-25T07:11:46;9.83;;;2.67;;
18102;SDS011;9178;51.120;6.192;2023-04-25T07:14:13;12.73;;;3.10;;
18102;SDS011;9178;51.120;6.192;2023-04-25T07:16:40;7.20;;;2.40;;
18102;SDS011;9178;51.120;6.192;2023-04-25T07:19:07;8.47;;;2.33;;
18102;SDS011;9178;51.120;6.192;2023-04-25T07:21:34;12.17;;;2.67;;
18102;SDS011;9178;51.120;6.192;2023-04-25T07:24:03;3.47;;;2.00;;
18102;SDS011;9178;51.120;6.192;2023-04-25T07:26:41;10.53;;;2.60;;
18102;SDS011;9178;51.120;6.192;2023-04-25T07:29:08;5.47;;;2.07;;
18102;SDS011;9178;51.120;6.192;2023-04-25T07:31:35;11.80;;;2.40;;
18102;SDS011;9178;51.120;6.192;2023-04-25T07:34:02;6.20;;;2.13;;
18102;SDS011;9178;51.120;6.192;2023-04-25T07:36:29;10.87;;;2.53;;
18102;SDS011;9178;51.120;6.192;2023-04-25T07:38:56;9.90;;;2.50;;
18102;SDS011;9178;51.120;6.192;2023-04-25T07:41:24;8.87;;;2.40;;
18102;SDS011;9178;51.120;6.192;2023-04-25T07:43:51;9.30;;;2.37;;
18102;SDS011;9178;51.120;6.192;2023-04-25T07:46:18;9.53;;;2.90;;
18102;SDS011;9178;51.120;6.192;2023-04-25T07:48:45;6.93;;;2.13;;
18102;SDS011;9178;51.120;6.192;2023-04-25T07:51:12;9.50;;;2.70;;
18102;SDS011;9178;51.120;6.192;2023-04-25T07:53:40;8.23;;;2.10;;
18102;SDS011;9178;51.120;6.192;2023-04-25T07:56:07;7.80;;;2.60;;
18102;SDS011;9178;51.120;6.192;2023-04-25T07:58:38;8.77;;;2.27;;
18102;SDS011;9178;51.120;6.192;2023-04-25T08:01:05;6.10;;;1.83;;
18102;SDS011;9178;51.120;6.192;2023-04-25T08:03:34;8.23;;;2.27;;
18102;SDS011;9178;51.120;6.192;2023-04-25T08:06:01;10.07;;;2.00;;
18102;SDS011;9178;51.120;6.192;2023-04-25T08:08:27;6.00;;;1.90;;
18102;SDS011;9178;51.120;6.192;2023-04-25T08:10:57;8.73;;;1.90;;
18102;SDS011;9178;51.120;6.192;2023-04-25T08:13:24;8.10;;;2.20;;
18102;SDS011;9178;51.120;6.192;2023-04-25T08:15:53;9.60;;;2.23;;
18102;SDS011;9178;51.120;6.192;2023-04-25T08:18:19;9.43;;;2.07;;
18102;SDS011;9178;51.120;6.192;2023-04-25T08:20:54;5.43;;;2.13;;
18102;SDS011;9178;51.120;6.192;2023-04-25T08:23:21;8.67;;;1.90;;
18102;SDS011;9178;51.120;6.192;2023-04-25T08:25:48;8.43;;;1.83;;
18102;SDS011;9178;51.120;6.192;2023-04-25T08:28:15;4.03;;;1.83;;
18102;SDS011;9178;51.120;6.192;2023-04-25T08:30:42;5.83;;;1.97;;
18102;SDS011;9178;51.120;6.192;2023-04-25T08:33:10;8.30;;;2.10;;
18102;SDS011;9178;51.120;6.192;2023-04-25T08:35:37;5.50;;;2.10;;
18102;SDS011;9178;51.120;6.192;2023-04-25T08:38:04;7.63;;;2.33;;
18102;SDS011;9178;51.120;6.192;2023-04-25T08:40:35;10.07;;;2.23;;
18102;SDS011;9178;51.120;6.192;2023-04-25T08:43:05;10.67;;;2.27;;
18102;SDS011;9178;51.120;6.192;2023-04-25T08:45:36;7.23;;;2.00;;
18102;SDS011;9178;51.120;6.192;2023-04-25T08:48:07;6.00;;;1.80;;
18102;SDS011;9178;51.120;6.192;2023-04-25T08:50:38;7.47;;;2.30;;
18102;SDS011;9178;51.120;6.192;2023-04-25T08:53:08;6.57;;;2.23;;
18102;SDS011;9178;51.120;6.192;2023-04-25T08:55:41;6.67;;;2.20;;
18102;SDS011;9178;51.120;6.192;2023-04-25T08:58:09;5.90;;;2.10;;
18102;SDS011;9178;51.120;6.192;2023-04-25T09:00:37;8.97;;;1.90;;
18102;SDS011;9178;51.120;6.192;2023-04-25T09:03:07;5.37;;;2.10;;
18102;SDS011;9178;51.120;6.192;2023-04-25T09:05:34;5.13;;;1.70;;
18102;SDS011;9178;51.120;6.192;2023-04-25T09:08:04;4.67;;;1.80;;
18102;SDS011;9178;51.120;6.192;2023-04-25T09:10:31;6.00;;;1.80;;
18102;SDS011;9178;51.120;6.192;2023-04-25T09:13:01;5.27;;;1.73;;
18102;SDS011;9178;51.120;6.192;2023-04-25T09:15:30;6.60;;;1.70;;
18102;SDS011;9178;51.120;6.192;2023-04-25T09:17:57;8.83;;;2.37;;
18102;SDS011;9178;51.120;6.192;2023-04-25T09:20:25;6.27;;;1.77;;
18102;SDS011;9178;51.120;6.192;2023-04-25T09:23:00;7.37;;;2.10;;
18102;SDS011;9178;51.120;6.192;2023-04-25T09:25:35;7.50;;;1.90;;
18102;SDS011;9178;51.120;6.192;2023-04-25T09:28:04;3.07;;;1.70;;
18102;SDS011;9178;51.120;6.192;2023-04-25T09:30:32;3.93;;;1.60;;
18102;SDS011;9178;51.120;6.192;2023-04-25T09:33:06;5.23;;;1.60;;
18102;SDS011;9178;51.120;6.192;2023-04-25T09:35:35;6.10;;;1.70;;
18102;SDS011;9178;51.120;6.192;2023-04-25T09:38:07;6.47;;;2.37;;
18102;SDS011;9178;51.120;6.192;2023-04-25T09:40:42;5.83;;;1.37;;
18102;SDS011;9178;51.120;6.192;2023-04-25T09:43:18;5.23;;;1.50;;
18102;SDS011;9178;51.120;6.192;2023-04-25T09:45:46;6.67;;;1.70;;
18102;SDS011;9178;51.120;6.192;2023-04-25T09:48:16;5.43;;;1.30;;
18102;SDS011;9178;51.120;6.192;2023-04-25T09:50:45;4.30;;;1.70;;
18102;SDS011;9178;51.120;6.192;2023-04-25T09:53:23;5.20;;;1.33;;
18102;SDS011;9178;51.120;6.192;2023-04-25T09:55:55;6.57;;;1.60;;
18102;SDS011;9178;51.120;6.192;2023-04-25T09:58:22;6.37;;;1.63;;
18102;SDS011;9178;51.120;6.192;2023-04-25T10:00:51;5.10;;;1.40;;
18102;SDS011;9178;51.120;6.192;2023-04-25T10:03:18;3.37;;;1.70;;
18102;SDS011;9178;51.120;6.192;2023-04-25T10:05:57;5.13;;;1.80;;
18102;SDS011;9178;51.120;6.192;2023-04-25T10:08:31;4.90;;;1.80;;
18102;SDS011;9178;51.120;6.192;2023-04-25T10:11:02;4.70;;;1.53;;
18102;SDS011;9178;51.120;6.192;2023-04-25T10:13:31;4.73;;;1.40;;
18102;SDS011;9178;51.120;6.192;2023-04-25T10:15:58;4.80;;;1.60;;
18102;SDS011;9178;51.120;6.192;2023-04-25T10:18:27;6.20;;;1.40;;
18102;SDS011;9178;51.120;6.192;2023-04-25T10:21:01;4.67;;;1.67;;
18102;SDS011;9178;51.120;6.192;2023-04-25T10:23:33;7.37;;;1.70;;
18102;SDS011;9178;51.120;6.192;2023-04-25T10:26:02;4.47;;;1.30;;
18102;SDS011;9178;51.120;6.192;2023-04-25T10:28:29;6.50;;;1.70;;
18102;SDS011;9178;51.120;6.192;2023-04-25T10:31:29;3.80;;;1.30;;
18102;SDS011;9178;51.120;6.192;2023-04-25T10:33:56;5.97;;;1.57;;
18102;SDS011;9178;51.120;6.192;2023-04-25T10:36:25;4.87;;;1.53;;
18102;SDS011;9178;51.120;6.192;2023-04-25T10:38:54;7.77;;;1.57;;
18102;SDS011;9178;51.120;6.192;2023-04-25T10:41:24;4.57;;;1.57;;
18102;SDS011;9178;51.120;6.192;2023-04-25T10:43:58;3.87;;;1.50;;
18102;SDS011;9178;51.120;6.192;2023-04-25T10:46:27;4.43;;;1.10;;
18102;SDS011;9178;51.120;6.192;2023-04-25T10:48:56;4.57;;;1.37;;
18102;SDS011;9178;51.120;6.192;2023-04-25T10:51:24;4.23;;;1.50;;
18102;SDS011;9178;51.120;6.192;2023-04-25T10:54:02;3.50;;;1.47;;
18102;SDS011;9178;51.120;6.192;2023-04-25T10:56:33;4.57;;;1.60;;
18102;SDS011;9178;51.120;6.192;2023-04-25T10:59:05;3.83;;;1.23;;
18102;SDS011;9178;51.120;6.192;2023-04-25T11:01:36;4.13;;;1.80;;
18102;SDS011;9178;51.120;6.192;2023-04-25T11:04:18;4.53;;;1.50;;
18102;SDS011;9178;51.120;6.192;2023-04-25T11:06:49;3.70;;;1.57;;
18102;SDS011;9178;51.120;6.192;2023-04-25T11:09:26;4.47;;;1.20;;
18102;SDS011;9178;51.120;6.192;2023-04-25T11:11:58;4.60;;;1.13;;
18102;SDS011;9178;51.120;6.192;2023-04-25T11:14:31;3.97;;;1.53;;
18102;SDS011;9178;51.120;6.192;2023-04-25T11:16:58;2.55;;;0.95;;
18102;SDS011;9178;51.120;6.192;2023-04-25T11:19:26;2.60;;;1.20;;
18102;SDS011;9178;51.120;6.192;2023-04-25T11:21:54;4.45;;;1.30;;
18102;SDS011;9178;51.120;6.192;2023-04-25T11:24:25;2.45;;;1.23;;
18102;SDS011;9178;51.120;6.192;2023-04-25T11:26:53;3.72;;;1.20;;
18102;SDS011;9178;51.120;6.192;2023-04-25T11:29:23;4.25;;;1.55;;
18102;SDS011;9178;51.120;6.192;2023-04-25T11:31:50;6.03;;;1.67;;
18102;SDS011;9178;51.120;6.192;2023-04-25T11:34:17;4.22;;;2.33;;
18102;SDS011;9178;51.120;6.192;2023-04-25T11:36:44;3.57;;;1.67;;
18102;SDS011;9178;51.120;6.192;2023-04-25T11:39:12;6.03;;;1.45;;
18102;SDS011;9178;51.120;6.192;2023-04-25T11:41:40;5.70;;;1.40;;
18102;SDS011;9178;51.120;6.192;2023-04-25T11:44:07;5.43;;;1.20;;
18102;SDS011;9178;51.120;6.192;2023-04-25T11:46:39;5.53;;;1.53;;
18102;SDS011;9178;51.120;6.192;2023-04-25T11:49:09;5.70;;;1.87;;
18102;SDS011;9178;51.120;6.192;2023-04-25T11:51:39;3.40;;;1.40;;
18102;SDS011;9178;51.120;6.192;2023-04-25T11:54:08;2.80;;;1.60;;
18102;SDS011;9178;51.120;6.192;2023-04-25T11:56:38;4.10;;;1.40;;
18102;SDS011;9178;51.120;6.192;2023-04-25T11:59:13;4.77;;;1.70;;
18102;SDS011;9178;51.120;6.192;2023-04-25T12:01:47;2.07;;;1.10;;
18102;SDS011;9178;51.120;6.192;2023-04-25T12:04:16;2.20;;;1.00;;
18102;SDS011;9178;51.120;6.192;2023-04-25T12:06:45;4.87;;;1.97;;
18102;SDS011;9178;51.120;6.192;2023-04-25T12:09:14;2.92;;;1.17;;
18102;SDS011;9178;51.120;6.192;2023-04-25T12:11:43;4.90;;;1.40;;
18102;SDS011;9178;51.120;6.192;2023-04-25T12:14:11;4.55;;;1.17;;
18102;SDS011;9178;51.120;6.192;2023-04-25T12:16:43;4.90;;;1.38;;
18102;SDS011;9178;51.120;6.192;2023-04-25T12:19:13;4.32;;;1.30;;
18102;SDS011;9178;51.120;6.192;2023-04-25T12:21:41;4.43;;;1.13;;
18102;SDS011;9178;51.120;6.192;2023-04-25T12:24:09;3.33;;;1.10;;
18102;SDS011;9178;51.120;6.192;2023-04-25T12:26:49;3.22;;;1.00;;
18102;SDS011;9178;51.120;6.192;2023-04-25T12:29:17;1.95;;;1.05;;
18102;SDS011;9178;51.120;6.192;2023-04-25T12:31:46;1.90;;;1.17;;
18102;SDS011;9178;51.120;6.192;2023-04-25T12:34:14;2.60;;;1.30;;
18102;SDS011;9178;51.120;6.192;2023-04-25T12:36:51;1.88;;;1.10;;
18102;SDS011;9178;51.120;6.192;2023-04-25T12:39:19;1.85;;;1.23;;
18102;SDS011;9178;51.120;6.192;2023-04-25T12:41:52;1.98;;;1.00;;
18102;SDS011;9178;51.120;6.192;2023-04-25T12:44:20;2.55;;;1.40;;
18102;SDS011;9178;51.120;6.192;2023-04-25T12:46:48;4.03;;;0.90;;
18102;SDS011;9178;51.120;6.192;2023-04-25T12:49:16;1.20;;;0.90;;
18102;SDS011;9178;51.120;6.192;2023-04-25T12:51:43;2.22;;;0.80;;
18102;SDS011;9178;51.120;6.192;2023-04-25T12:54:17;2.17;;;0.82;;
18102;SDS011;9178;51.120;6.192;2023-04-25T12:56:44;1.05;;;0.82;;
18102;SDS011;9178;51.120;6.192;2023-04-25T12:59:12;2.05;;;0.60;;
18102;SDS011;9178;51.120;6.192;2023-04-25T13:01:49;5.38;;;1.40;;
18102;SDS011;9178;51.120;6.192;2023-04-25T13:04:16;1.77;;;0.90;;
18102;SDS011;9178;51.120;6.192;2023-04-25T13:06:45;3.87;;;1.20;;
18102;SDS011;9178;51.120;6.192;2023-04-25T13:09:12;2.58;;;0.95;;
18102;SDS011;9178;51.120;6.192;2023-04-25T13:11:40;3.77;;;1.40;;
18102;SDS011;9178;51.120;6.192;2023-04-25T13:14:08;5.53;;;1.10;;
18102;SDS011;9178;51.120;6.192;2023-04-25T13:16:34;3.00;;;1.00;;
18102;SDS011;9178;51.120;6.192;2023-04-25T13:19:03;2.30;;;0.97;;
18102;SDS011;9178;51.120;6.192;2023-04-25T13:21:32;1.80;;;0.87;;
18102;SDS011;9178;51.120;6.192;2023-04-25T13:23:59;1.80;;;1.00;;
18102;SDS011;9178;51.120;6.192;2023-04-25T13:26:26;4.10;;;1.10;;
18102;SDS011;9178;51.120;6.192;2023-04-25T13:28:53;2.57;;;0.80;;
18102;SDS011;9178;51.120;6.192;2023-04-25T13:31:20;1.63;;;0.70;;
18102;SDS011;9178;51.120;6.192;2023-04-25T13:33:47;2.23;;;0.93;;
18102;SDS011;9178;51.120;6.192;2023-04-25T13:36:15;2.40;;;0.80;;
18102;SDS011;9178;51.120;6.192;2023-04-25T13:38:42;3.60;;;1.00;;
18102;SDS011;9178;51.120;6.192;2023-04-25T13:41:12;2.53;;;1.17;;
18102;SDS011;9178;51.120;6.192;2023-04-25T13:43:43;2.38;;;1.30;;
18102;SDS011;9178;51.120;6.192;2023-04-25T13:46:11;4.25;;;0.93;;
18102;SDS011;9178;51.120;6.192;2023-04-25T13:48:40;2.72;;;1.00;;
18102;SDS011;9178;51.120;6.192;2023-04-25T13:51:14;2.45;;;0.90;;
18102;SDS011;9178;51.120;6.192;2023-04-25T13:53:45;3.40;;;0.65;;
18102;SDS011;9178;51.120;6.192;2023-04-25T13:56:12;2.47;;;0.70;;
18102;SDS011;9178;51.120;6.192;2023-04-25T13:58:40;3.72;;;1.20;;
18102;SDS011;9178;51.120;6.192;2023-04-25T14:01:07;2.95;;;0.90;;
18102;SDS011;9178;51.120;6.192;2023-04-25T14:03:33;2.35;;;0.75;;
18102;SDS011;9178;51.120;6.192;2023-04-25T14:06:00;2.50;;;1.10;;
18102;SDS011;9178;51.120;6.192;2023-04-25T14:08:29;2.92;;;0.68;;
18102;SDS011;9178;51.120;6.192;2023-04-25T14:10:56;2.90;;;0.98;;
18102;SDS011;9178;51.120;6.192;2023-04-25T14:13:23;2.25;;;0.85;;
18102;SDS011;9178;51.120;6.192;2023-04-25T14:15:50;3.10;;;0.82;;
18102;SDS011;9178;51.120;6.192;2023-04-25T14:18:17;4.00;;;1.00;;
18102;SDS011;9178;51.120;6.192;2023-04-25T14:20:45;1.98;;;0.90;;
18102;SDS011;9178;51.120;6.192;2023-04-25T14:23:12;2.65;;;1.17;;
18102;SDS011;9178;51.120;6.192;2023-04-25T14:25:41;4.78;;;0.80;;
18102;SDS011;9178;51.120;6.192;2023-04-25T14:28:08;3.60;;;0.90;;
18102;SDS011;9178;51.120;6.192;2023-04-25T14:30:36;2.30;;;0.63;;
18102;SDS011;9178;51.120;6.192;2023-04-25T14:33:03;1.90;;;0.80;;
18102;SDS011;9178;51.120;6.192;2023-04-25T14:35:30;2.22;;;0.70;;
18102;SDS011;9178;51.120;6.192;2023-04-25T14:37:57;1.88;;;0.70;;
18102;SDS011;9178;51.120;6.192;2023-04-25T14:40:24;2.15;;;0.70;;
18102;SDS011;9178;51.120;6.192;2023-04-25T14:42:53;2.45;;;0.60;;
18102;SDS011;9178;51.120;6.192;2023-04-25T14:45:20;2.42;;;0.88;;
18102;SDS011;9178;51.120;6.192;2023-04-25T14:47:47;3.37;;;0.80;;
18102;SDS011;9178;51.120;6.192;2023-04-25T14:50:14;1.53;;;0.50;;
18102;SDS011;9178;51.120;6.192;2023-04-25T14:52:41;1.53;;;0.60;;
18102;SDS011;9178;51.120;6.192;2023-04-25T14:55:10;2.60;;;0.73;;
18102;SDS011;9178;51.120;6.192;2023-04-25T14:57:37;4.13;;;0.97;;
18102;SDS011;9178;51.120;6.192;2023-04-25T15:00:07;2.40;;;0.80;;
18102;SDS011;9178;51.120;6.192;2023-04-25T15:02:34;1.67;;;0.60;;